sensor_id;sensor_type;location;lat;lon;timestamp;P1;durP1;ratioP1;P2;durP2;ratioP2
10811;SDS011;5458;51.496;7.334;2022-07-29T00:01:21;2.40;;;0.75;;
10811;SDS011;5458;51.496;7.334;2022-07-29T00:03:47;2.58;;;0.80;;
10811;SDS011;5458;51.496;7.334;2022-07-29T00:06:13;2.95;;;1.00;;
10811;SDS011;5458;51.496;7.334;2022-07-29T00:08:39;3.80;;;0.93;;
10811;SDS011;5458;51.496;7.334;2022-07-29T00:11:05;1.25;;;1.00;;
10811;SDS011;5458;51.496;7.334;2022-07-29T00:13:30;4.20;;;1.20;;
10811;SDS011;5458;51.496;7.334;2022-07-29T00:15:56;3.65;;;1.73;;
10811;SDS011;5458;51.496;7.334;2022-07-29T00:18:22;1.42;;;0.90;;
10811;SDS011;5458;51.496;7.334;2022-07-29T00:20:47;4.25;;;1.23;;
10811;SDS011;5458;51.496;7.334;2022-07-29T00:23:13;2.20;;;1.15;;
10811;SDS011;5458;51.496;7.334;2022-07-29T00:25:38;2.22;;;0.90;;
10811;SDS011;5458;51.496;7.334;2022-07-29T00:28:04;2.47;;;0.90;;
10811;SDS011;5458;51.496;7.334;2022-07-29T00:30:30;3.00;;;1.00;;
10811;SDS011;5458;51.496;7.334;2022-07-29T00:32:56;2.97;;;1.05;;
10811;SDS011;5458;51.496;7.334;2022-07-29T00:35:21;4.43;;;1.73;;
10811;SDS011;5458;51.496;7.334;2022-07-29T00:38:06;3.25;;;0.90;;
10811;SDS011;5458;51.496;7.334;2022-07-29T00:40:31;1.60;;;1.10;;
10811;SDS011;5458;51.496;7.334;2022-07-29T00:42:57;4.00;;;1.10;;
10811;SDS011;5458;51.496;7.334;2022-07-29T00:45:22;3.30;;;1.13;;
10811;SDS011;5458;51.496;7.334;2022-07-29T00:47:48;3.30;;;1.00;;
10811;SDS011;5458;51.496;7.334;2022-07-29T00:50:15;1.65;;;1.23;;
10811;SDS011;5458;51.496;7.334;2022-07-29T00:52:41;3.20;;;1.38;;
10811;SDS011;5458;51.496;7.334;2022-07-29T00:55:11;2.50;;;1.10;;
10811;SDS011;5458;51.496;7.334;2022-07-29T00:57:38;1.90;;;1.10;;
10811;SDS011;5458;51.496;7.334;2022-07-29T01:00:06;1.35;;;1.10;;
10811;SDS011;5458;51.496;7.334;2022-07-29T01:02:34;2.40;;;0.90;;
10811;SDS011;5458;51.496;7.334;2022-07-29T01:05:01;5.15;;;1.05;;
10811;SDS011;5458;51.496;7.334;2022-07-29T01:07:28;1.13;;;1.02;;
10811;SDS011;5458;51.496;7.334;2022-07-29T01:09:56;2.78;;;0.95;;
10811;SDS011;5458;51.496;7.334;2022-07-29T01:12:24;2.92;;;1.13;;
10811;SDS011;5458;51.496;7.334;2022-07-29T01:14:51;3.35;;;1.10;;
10811;SDS011;5458;51.496;7.334;2022-07-29T01:17:24;1.52;;;1.02;;
10811;SDS011;5458;51.496;7.334;2022-07-29T01:30:40;1.65;;;1.27;;
10811;SDS011;5458;51.496;7.334;2022-07-29T01:33:10;4.25;;;1.40;;
10811;SDS011;5458;51.496;7.334;2022-07-29T01:36:01;2.58;;;1.23;;
10811;SDS011;5458;51.496;7.334;2022-07-29T01:38:30;1.92;;;0.90;;
10811;SDS011;5458;51.496;7.334;2022-07-29T01:41:02;3.75;;;1.20;;
10811;SDS011;5458;51.496;7.334;2022-07-29T01:43:54;2.13;;;1.08;;
10811;SDS011;5458;51.496;7.334;2022-07-29T01:46:28;1.75;;;1.10;;
10811;SDS011;5458;51.496;7.334;2022-07-29T01:49:11;2.40;;;1.10;;
10811;SDS011;5458;51.496;7.334;2022-07-29T01:51:57;1.92;;;0.95;;
10811;SDS011;5458;51.496;7.334;2022-07-29T01:54:38;2.28;;;1.23;;
10811;SDS011;5458;51.496;7.334;2022-07-29T01:57:08;4.78;;;1.20;;
10811;SDS011;5458;51.496;7.334;2022-07-29T01:59:36;3.15;;;1.25;;
10811;SDS011;5458;51.496;7.334;2022-07-29T02:02:03;3.53;;;1.10;;
10811;SDS011;5458;51.496;7.334;2022-07-29T02:04:33;1.67;;;1.00;;
10811;SDS011;5458;51.496;7.334;2022-07-29T02:07:02;2.65;;;0.95;;
10811;SDS011;5458;51.496;7.334;2022-07-29T02:09:30;3.78;;;1.00;;
10811;SDS011;5458;51.496;7.334;2022-07-29T02:11:58;2.45;;;1.05;;
10811;SDS011;5458;51.496;7.334;2022-07-29T02:14:26;1.08;;;0.80;;
10811;SDS011;5458;51.496;7.334;2022-07-29T02:16:54;2.25;;;1.13;;
10811;SDS011;5458;51.496;7.334;2022-07-29T02:19:23;2.45;;;0.95;;
10811;SDS011;5458;51.496;7.334;2022-07-29T02:21:51;2.55;;;1.25;;
10811;SDS011;5458;51.496;7.334;2022-07-29T02:24:18;1.80;;;1.10;;
10811;SDS011;5458;51.496;7.334;2022-07-29T02:26:46;2.00;;;1.05;;
10811;SDS011;5458;51.496;7.334;2022-07-29T02:29:14;2.08;;;1.10;;
10811;SDS011;5458;51.496;7.334;2022-07-29T02:31:41;3.80;;;1.38;;
10811;SDS011;5458;51.496;7.334;2022-07-29T02:34:12;3.60;;;0.98;;
10811;SDS011;5458;51.496;7.334;2022-07-29T02:36:39;2.33;;;0.90;;
10811;SDS011;5458;51.496;7.334;2022-07-29T02:39:07;3.10;;;0.88;;
10811;SDS011;5458;51.496;7.334;2022-07-29T02:41:47;1.92;;;0.98;;
10811;SDS011;5458;51.496;7.334;2022-07-29T02:44:18;4.30;;;1.00;;
10811;SDS011;5458;51.496;7.334;2022-07-29T02:46:52;3.08;;;0.95;;
10811;SDS011;5458;51.496;7.334;2022-07-29T02:52:03;4.68;;;1.10;;
10811;SDS011;5458;51.496;7.334;2022-07-29T02:54:46;1.80;;;1.10;;
10811;SDS011;5458;51.496;7.334;2022-07-29T02:57:19;2.35;;;1.30;;
10811;SDS011;5458;51.496;7.334;2022-07-29T02:59:48;3.20;;;1.13;;
10811;SDS011;5458;51.496;7.334;2022-07-29T03:02:17;4.28;;;1.25;;
10811;SDS011;5458;51.496;7.334;2022-07-29T03:04:45;2.13;;;1.20;;
10811;SDS011;5458;51.496;7.334;2022-07-29T03:07:13;2.20;;;1.23;;
10811;SDS011;5458;51.496;7.334;2022-07-29T03:09:40;4.72;;;1.48;;
10811;SDS011;5458;51.496;7.334;2022-07-29T03:12:08;4.70;;;1.42;;
10811;SDS011;5458;51.496;7.334;2022-07-29T03:14:33;2.38;;;1.00;;
10811;SDS011;5458;51.496;7.334;2022-07-29T03:17:00;3.72;;;1.25;;
10811;SDS011;5458;51.496;7.334;2022-07-29T03:19:27;2.28;;;1.10;;
10811;SDS011;5458;51.496;7.334;2022-07-29T03:21:55;2.97;;;1.48;;
10811;SDS011;5458;51.496;7.334;2022-07-29T03:24:40;3.65;;;1.33;;
10811;SDS011;5458;51.496;7.334;2022-07-29T03:27:05;3.53;;;1.30;;
10811;SDS011;5458;51.496;7.334;2022-07-29T03:29:31;2.42;;;1.00;;
10811;SDS011;5458;51.496;7.334;2022-07-29T03:31:57;2.58;;;1.40;;
10811;SDS011;5458;51.496;7.334;2022-07-29T03:34:23;1.70;;;1.10;;
10811;SDS011;5458;51.496;7.334;2022-07-29T03:36:49;2.67;;;1.00;;
10811;SDS011;5458;51.496;7.334;2022-07-29T03:39:15;4.28;;;1.52;;
10811;SDS011;5458;51.496;7.334;2022-07-29T03:41:44;2.83;;;1.45;;
10811;SDS011;5458;51.496;7.334;2022-07-29T03:44:11;6.13;;;1.23;;
10811;SDS011;5458;51.496;7.334;2022-07-29T03:46:38;2.08;;;1.02;;
10811;SDS011;5458;51.496;7.334;2022-07-29T03:49:04;4.32;;;1.30;;
10811;SDS011;5458;51.496;7.334;2022-07-29T03:51:33;2.45;;;1.40;;
10811;SDS011;5458;51.496;7.334;2022-07-29T03:54:01;2.15;;;1.10;;
10811;SDS011;5458;51.496;7.334;2022-07-29T03:56:28;2.90;;;1.35;;
10811;SDS011;5458;51.496;7.334;2022-07-29T03:58:56;4.30;;;1.60;;
10811;SDS011;5458;51.496;7.334;2022-07-29T04:01:23;2.85;;;1.33;;
10811;SDS011;5458;51.496;7.334;2022-07-29T04:03:50;3.53;;;1.20;;
10811;SDS011;5458;51.496;7.334;2022-07-29T04:06:16;2.78;;;1.20;;
10811;SDS011;5458;51.496;7.334;2022-07-29T04:08:41;4.10;;;1.58;;
10811;SDS011;5458;51.496;7.334;2022-07-29T04:11:07;2.67;;;1.25;;
10811;SDS011;5458;51.496;7.334;2022-07-29T04:13:33;2.42;;;1.38;;
10811;SDS011;5458;51.496;7.334;2022-07-29T04:15:58;3.80;;;1.33;;
10811;SDS011;5458;51.496;7.334;2022-07-29T04:18:24;1.92;;;1.15;;
10811;SDS011;5458;51.496;7.334;2022-07-29T04:20:50;3.33;;;1.40;;
10811;SDS011;5458;51.496;7.334;2022-07-29T04:23:15;2.10;;;1.10;;
10811;SDS011;5458;51.496;7.334;2022-07-29T04:25:41;2.72;;;1.48;;
10811;SDS011;5458;51.496;7.334;2022-07-29T04:28:08;1.50;;;1.35;;
10811;SDS011;5458;51.496;7.334;2022-07-29T04:30:35;3.10;;;1.38;;
10811;SDS011;5458;51.496;7.334;2022-07-29T04:33:02;4.63;;;1.63;;
10811;SDS011;5458;51.496;7.334;2022-07-29T04:35:29;5.35;;;1.13;;
10811;SDS011;5458;51.496;7.334;2022-07-29T04:37:56;4.07;;;1.00;;
10811;SDS011;5458;51.496;7.334;2022-07-29T04:40:21;3.35;;;1.60;;
10811;SDS011;5458;51.496;7.334;2022-07-29T04:42:47;2.22;;;1.20;;
10811;SDS011;5458;51.496;7.334;2022-07-29T04:45:13;2.45;;;0.98;;
10811;SDS011;5458;51.496;7.334;2022-07-29T04:47:39;2.50;;;1.10;;
10811;SDS011;5458;51.496;7.334;2022-07-29T04:50:05;2.45;;;1.33;;
10811;SDS011;5458;51.496;7.334;2022-07-29T04:52:31;3.25;;;1.02;;
10811;SDS011;5458;51.496;7.334;2022-07-29T04:54:57;2.88;;;1.17;;
10811;SDS011;5458;51.496;7.334;2022-07-29T04:57:23;5.07;;;1.30;;
10811;SDS011;5458;51.496;7.334;2022-07-29T04:59:48;4.78;;;1.63;;
10811;SDS011;5458;51.496;7.334;2022-07-29T05:02:14;3.10;;;1.40;;
10811;SDS011;5458;51.496;7.334;2022-07-29T05:04:39;2.90;;;1.38;;
10811;SDS011;5458;51.496;7.334;2022-07-29T05:07:05;4.45;;;1.40;;
10811;SDS011;5458;51.496;7.334;2022-07-29T05:09:31;4.22;;;1.63;;
10811;SDS011;5458;51.496;7.334;2022-07-29T05:11:57;1.88;;;1.50;;
10811;SDS011;5458;51.496;7.334;2022-07-29T05:14:23;2.47;;;1.27;;
10811;SDS011;5458;51.496;7.334;2022-07-29T05:16:48;3.55;;;1.77;;
10811;SDS011;5458;51.496;7.334;2022-07-29T05:19:16;3.83;;;2.00;;
10811;SDS011;5458;51.496;7.334;2022-07-29T05:21:42;6.43;;;2.00;;
10811;SDS011;5458;51.496;7.334;2022-07-29T05:24:09;3.58;;;1.98;;
10811;SDS011;5458;51.496;7.334;2022-07-29T05:26:35;3.60;;;1.98;;
10811;SDS011;5458;51.496;7.334;2022-07-29T05:29:00;2.88;;;1.83;;
10811;SDS011;5458;51.496;7.334;2022-07-29T05:31:26;6.22;;;2.00;;
10811;SDS011;5458;51.496;7.334;2022-07-29T05:33:52;3.22;;;1.92;;
10811;SDS011;5458;51.496;7.334;2022-07-29T05:36:17;7.78;;;2.45;;
10811;SDS011;5458;51.496;7.334;2022-07-29T05:38:43;3.92;;;2.22;;
10811;SDS011;5458;51.496;7.334;2022-07-29T05:41:08;5.25;;;2.00;;
10811;SDS011;5458;51.496;7.334;2022-07-29T05:43:34;7.05;;;2.28;;
10811;SDS011;5458;51.496;7.334;2022-07-29T05:45:59;3.13;;;1.90;;
10811;SDS011;5458;51.496;7.334;2022-07-29T05:48:25;3.85;;;2.22;;
10811;SDS011;5458;51.496;7.334;2022-07-29T05:50:51;4.85;;;2.63;;
10811;SDS011;5458;51.496;7.334;2022-07-29T05:53:17;6.20;;;2.42;;
10811;SDS011;5458;51.496;7.334;2022-07-29T05:55:42;6.13;;;2.50;;
10811;SDS011;5458;51.496;7.334;2022-07-29T05:58:08;2.65;;;2.10;;
10811;SDS011;5458;51.496;7.334;2022-07-29T06:00:33;3.65;;;2.15;;
10811;SDS011;5458;51.496;7.334;2022-07-29T06:02:59;4.82;;;2.67;;
10811;SDS011;5458;51.496;7.334;2022-07-29T06:05:25;3.53;;;2.28;;
10811;SDS011;5458;51.496;7.334;2022-07-29T06:07:50;2.63;;;2.00;;
10811;SDS011;5458;51.496;7.334;2022-07-29T06:10:16;3.65;;;2.38;;
10811;SDS011;5458;51.496;7.334;2022-07-29T06:12:41;3.65;;;2.45;;
10811;SDS011;5458;51.496;7.334;2022-07-29T06:15:07;5.32;;;2.65;;
10811;SDS011;5458;51.496;7.334;2022-07-29T06:17:33;4.18;;;2.45;;
10811;SDS011;5458;51.496;7.334;2022-07-29T06:19:59;2.80;;;2.35;;
10811;SDS011;5458;51.496;7.334;2022-07-29T06:22:25;5.28;;;2.40;;
10811;SDS011;5458;51.496;7.334;2022-07-29T06:24:50;4.93;;;2.22;;
10811;SDS011;5458;51.496;7.334;2022-07-29T06:27:16;3.40;;;2.50;;
10811;SDS011;5458;51.496;7.334;2022-07-29T06:29:41;6.68;;;2.10;;
10811;SDS011;5458;51.496;7.334;2022-07-29T06:32:07;3.17;;;2.17;;
10811;SDS011;5458;51.496;7.334;2022-07-29T06:34:34;3.85;;;1.85;;
10811;SDS011;5458;51.496;7.334;2022-07-29T06:37:00;4.05;;;1.85;;
10811;SDS011;5458;51.496;7.334;2022-07-29T06:39:30;5.00;;;2.00;;
10811;SDS011;5458;51.496;7.334;2022-07-29T06:41:56;4.13;;;2.05;;
10811;SDS011;5458;51.496;7.334;2022-07-29T06:44:21;2.22;;;1.77;;
10811;SDS011;5458;51.496;7.334;2022-07-29T06:46:47;4.00;;;2.13;;
10811;SDS011;5458;51.496;7.334;2022-07-29T06:49:14;3.38;;;1.75;;
10811;SDS011;5458;51.496;7.334;2022-07-29T06:51:39;2.75;;;1.88;;
10811;SDS011;5458;51.496;7.334;2022-07-29T06:54:05;4.20;;;1.80;;
10811;SDS011;5458;51.496;7.334;2022-07-29T06:56:31;2.33;;;1.98;;
10811;SDS011;5458;51.496;7.334;2022-07-29T06:58:58;3.45;;;1.73;;
10811;SDS011;5458;51.496;7.334;2022-07-29T07:01:24;2.55;;;1.88;;
10811;SDS011;5458;51.496;7.334;2022-07-29T07:03:49;1.67;;;1.58;;
10811;SDS011;5458;51.496;7.334;2022-07-29T07:06:15;2.92;;;1.85;;
10811;SDS011;5458;51.496;7.334;2022-07-29T07:08:41;3.67;;;2.00;;
10811;SDS011;5458;51.496;7.334;2022-07-29T07:11:07;3.42;;;1.70;;
10811;SDS011;5458;51.496;7.334;2022-07-29T07:13:33;7.05;;;2.55;;
10811;SDS011;5458;51.496;7.334;2022-07-29T07:15:59;4.75;;;2.40;;
10811;SDS011;5458;51.496;7.334;2022-07-29T07:18:29;10.52;;;2.40;;
10811;SDS011;5458;51.496;7.334;2022-07-29T07:20:55;4.68;;;2.40;;
10811;SDS011;5458;51.496;7.334;2022-07-29T07:23:21;6.63;;;2.90;;
10811;SDS011;5458;51.496;7.334;2022-07-29T07:25:47;2.50;;;2.17;;
10811;SDS011;5458;51.496;7.334;2022-07-29T07:28:12;4.47;;;2.10;;
10811;SDS011;5458;51.496;7.334;2022-07-29T07:30:38;3.05;;;2.05;;
10811;SDS011;5458;51.496;7.334;2022-07-29T07:33:04;4.15;;;1.83;;
10811;SDS011;5458;51.496;7.334;2022-07-29T07:35:30;2.63;;;2.00;;
10811;SDS011;5458;51.496;7.334;2022-07-29T07:37:56;4.40;;;1.90;;
10811;SDS011;5458;51.496;7.334;2022-07-29T07:40:22;3.92;;;2.05;;
10811;SDS011;5458;51.496;7.334;2022-07-29T07:42:48;4.03;;;1.88;;
10811;SDS011;5458;51.496;7.334;2022-07-29T07:45:14;6.95;;;1.77;;
10811;SDS011;5458;51.496;7.334;2022-07-29T07:47:40;4.60;;;1.75;;
10811;SDS011;5458;51.496;7.334;2022-07-29T07:50:06;5.85;;;2.05;;
10811;SDS011;5458;51.496;7.334;2022-07-29T07:52:33;4.70;;;2.00;;
10811;SDS011;5458;51.496;7.334;2022-07-29T07:54:59;4.30;;;2.08;;
10811;SDS011;5458;51.496;7.334;2022-07-29T07:57:26;5.65;;;1.95;;
10811;SDS011;5458;51.496;7.334;2022-07-29T07:59:51;2.13;;;1.67;;
10811;SDS011;5458;51.496;7.334;2022-07-29T08:02:17;3.80;;;1.80;;
10811;SDS011;5458;51.496;7.334;2022-07-29T08:04:42;4.15;;;2.40;;
10811;SDS011;5458;51.496;7.334;2022-07-29T08:07:08;3.50;;;2.13;;
10811;SDS011;5458;51.496;7.334;2022-07-29T08:09:34;4.10;;;2.25;;
10811;SDS011;5458;51.496;7.334;2022-07-29T08:12:00;5.30;;;1.90;;
10811;SDS011;5458;51.496;7.334;2022-07-29T08:14:29;5.13;;;2.25;;
10811;SDS011;5458;51.496;7.334;2022-07-29T08:16:55;3.38;;;2.20;;
10811;SDS011;5458;51.496;7.334;2022-07-29T08:19:21;4.43;;;2.35;;
10811;SDS011;5458;51.496;7.334;2022-07-29T08:21:46;4.90;;;2.63;;
10811;SDS011;5458;51.496;7.334;2022-07-29T08:24:12;3.42;;;2.50;;
10811;SDS011;5458;51.496;7.334;2022-07-29T08:26:56;4.35;;;2.60;;
10811;SDS011;5458;51.496;7.334;2022-07-29T08:29:22;4.47;;;2.15;;
10811;SDS011;5458;51.496;7.334;2022-07-29T08:31:48;5.43;;;3.40;;
10811;SDS011;5458;51.496;7.334;2022-07-29T08:34:13;2.67;;;2.00;;
10811;SDS011;5458;51.496;7.334;2022-07-29T08:36:39;6.03;;;2.28;;
10811;SDS011;5458;51.496;7.334;2022-07-29T08:39:04;3.85;;;2.28;;
10811;SDS011;5458;51.496;7.334;2022-07-29T08:41:30;5.80;;;2.28;;
10811;SDS011;5458;51.496;7.334;2022-07-29T08:43:56;5.25;;;2.67;;
10811;SDS011;5458;51.496;7.334;2022-07-29T08:46:22;2.97;;;2.28;;
10811;SDS011;5458;51.496;7.334;2022-07-29T08:48:48;8.70;;;2.95;;
10811;SDS011;5458;51.496;7.334;2022-07-29T08:51:14;4.45;;;2.72;;
10811;SDS011;5458;51.496;7.334;2022-07-29T08:53:42;4.75;;;2.45;;
10811;SDS011;5458;51.496;7.334;2022-07-29T08:56:12;4.03;;;2.25;;
10811;SDS011;5458;51.496;7.334;2022-07-29T08:58:44;4.30;;;2.10;;
10811;SDS011;5458;51.496;7.334;2022-07-29T09:01:12;4.40;;;2.05;;
10811;SDS011;5458;51.496;7.334;2022-07-29T09:03:41;7.60;;;3.20;;
10811;SDS011;5458;51.496;7.334;2022-07-29T09:06:11;2.85;;;2.40;;
10811;SDS011;5458;51.496;7.334;2022-07-29T09:08:42;3.72;;;2.78;;
10811;SDS011;5458;51.496;7.334;2022-07-29T09:11:08;4.55;;;2.10;;
10811;SDS011;5458;51.496;7.334;2022-07-29T09:13:35;5.20;;;2.20;;
10811;SDS011;5458;51.496;7.334;2022-07-29T09:16:00;4.90;;;2.13;;
10811;SDS011;5458;51.496;7.334;2022-07-29T09:21:09;3.15;;;2.42;;
10811;SDS011;5458;51.496;7.334;2022-07-29T09:24:02;4.78;;;2.97;;
10811;SDS011;5458;51.496;7.334;2022-07-29T09:26:39;3.80;;;2.78;;
10811;SDS011;5458;51.496;7.334;2022-07-29T09:29:10;2.85;;;2.15;;
10811;SDS011;5458;51.496;7.334;2022-07-29T09:31:48;4.30;;;2.15;;
10811;SDS011;5458;51.496;7.334;2022-07-29T09:34:16;4.78;;;2.22;;
10811;SDS011;5458;51.496;7.334;2022-07-29T09:36:48;3.38;;;2.03;;
10811;SDS011;5458;51.496;7.334;2022-07-29T09:39:15;4.13;;;2.00;;
10811;SDS011;5458;51.496;7.334;2022-07-29T09:41:52;7.53;;;2.72;;
10811;SDS011;5458;51.496;7.334;2022-07-29T09:44:19;6.28;;;2.42;;
10811;SDS011;5458;51.496;7.334;2022-07-29T09:46:56;5.13;;;2.28;;
10811;SDS011;5458;51.496;7.334;2022-07-29T09:49:31;2.65;;;2.45;;
10811;SDS011;5458;51.496;7.334;2022-07-29T09:52:05;5.53;;;2.15;;
10811;SDS011;5458;51.496;7.334;2022-07-29T09:54:33;3.20;;;2.28;;
10811;SDS011;5458;51.496;7.334;2022-07-29T09:57:02;4.05;;;2.30;;
10811;SDS011;5458;51.496;7.334;2022-07-29T09:59:29;5.43;;;3.03;;
10811;SDS011;5458;51.496;7.334;2022-07-29T10:01:55;8.23;;;2.70;;
10811;SDS011;5458;51.496;7.334;2022-07-29T10:04:21;3.40;;;2.67;;
10811;SDS011;5458;51.496;7.334;2022-07-29T10:09:26;8.93;;;3.28;;
10811;SDS011;5458;51.496;7.334;2022-07-29T10:14:33;4.40;;;2.60;;
10811;SDS011;5458;51.496;7.334;2022-07-29T10:16:59;7.25;;;3.85;;
10811;SDS011;5458;51.496;7.334;2022-07-29T10:19:31;6.78;;;2.95;;
10811;SDS011;5458;51.496;7.334;2022-07-29T10:21:58;5.70;;;3.63;;
10811;SDS011;5458;51.496;7.334;2022-07-29T10:24:25;5.03;;;3.47;;
10811;SDS011;5458;51.496;7.334;2022-07-29T10:26:52;7.78;;;3.40;;
10811;SDS011;5458;51.496;7.334;2022-07-29T10:29:19;6.07;;;3.85;;
10811;SDS011;5458;51.496;7.334;2022-07-29T10:31:50;3.95;;;3.35;;
10811;SDS011;5458;51.496;7.334;2022-07-29T10:37:28;6.47;;;3.67;;
10811;SDS011;5458;51.496;7.334;2022-07-29T10:40:15;7.20;;;3.65;;
10811;SDS011;5458;51.496;7.334;2022-07-29T10:43:31;4.45;;;3.50;;
10811;SDS011;5458;51.496;7.334;2022-07-29T10:46:01;5.15;;;4.00;;
10811;SDS011;5458;51.496;7.334;2022-07-29T10:48:28;7.32;;;3.58;;
10811;SDS011;5458;51.496;7.334;2022-07-29T10:56:23;3.20;;;2.90;;
10811;SDS011;5458;51.496;7.334;2022-07-29T10:59:22;4.10;;;3.33;;
10811;SDS011;5458;51.496;7.334;2022-07-29T11:01:46;5.90;;;3.35;;
10811;SDS011;5458;51.496;7.334;2022-07-29T11:04:12;6.13;;;3.15;;
10811;SDS011;5458;51.496;7.334;2022-07-29T11:09:25;3.58;;;3.20;;
10811;SDS011;5458;51.496;7.334;2022-07-29T11:11:51;3.35;;;2.38;;
10811;SDS011;5458;51.496;7.334;2022-07-29T11:14:17;3.42;;;3.03;;
10811;SDS011;5458;51.496;7.334;2022-07-29T11:17:00;5.15;;;2.75;;
10811;SDS011;5458;51.496;7.334;2022-07-29T11:19:27;4.40;;;2.80;;
10811;SDS011;5458;51.496;7.334;2022-07-29T11:21:53;4.30;;;3.03;;
10811;SDS011;5458;51.496;7.334;2022-07-29T11:24:23;6.72;;;3.10;;
10811;SDS011;5458;51.496;7.334;2022-07-29T11:29:40;3.17;;;2.85;;
10811;SDS011;5458;51.496;7.334;2022-07-29T11:32:18;4.03;;;2.47;;
10811;SDS011;5458;51.496;7.334;2022-07-29T11:34:45;7.03;;;2.80;;
10811;SDS011;5458;51.496;7.334;2022-07-29T11:39:41;6.07;;;2.95;;
10811;SDS011;5458;51.496;7.334;2022-07-29T11:47:23;3.50;;;2.33;;
10811;SDS011;5458;51.496;7.334;2022-07-29T11:49:52;4.82;;;2.40;;
10811;SDS011;5458;51.496;7.334;2022-07-29T11:52:19;3.22;;;2.72;;
10811;SDS011;5458;51.496;7.334;2022-07-29T11:54:47;5.03;;;2.97;;
10811;SDS011;5458;51.496;7.334;2022-07-29T11:57:14;6.35;;;2.75;;
10811;SDS011;5458;51.496;7.334;2022-07-29T11:59:43;5.95;;;3.50;;
10811;SDS011;5458;51.496;7.334;2022-07-29T12:02:10;4.50;;;2.03;;
10811;SDS011;5458;51.496;7.334;2022-07-29T12:04:49;4.30;;;2.92;;
10811;SDS011;5458;51.496;7.334;2022-07-29T12:07:15;4.35;;;3.22;;
10811;SDS011;5458;51.496;7.334;2022-07-29T12:09:48;5.18;;;2.65;;
10811;SDS011;5458;51.496;7.334;2022-07-29T12:12:16;4.35;;;2.83;;
10811;SDS011;5458;51.496;7.334;2022-07-29T12:14:42;7.25;;;3.67;;
10811;SDS011;5458;51.496;7.334;2022-07-29T12:17:24;8.68;;;3.03;;
10811;SDS011;5458;51.496;7.334;2022-07-29T12:19:52;5.53;;;3.08;;
10811;SDS011;5458;51.496;7.334;2022-07-29T12:22:24;4.70;;;3.50;;
10811;SDS011;5458;51.496;7.334;2022-07-29T12:24:52;4.68;;;3.00;;
10811;SDS011;5458;51.496;7.334;2022-07-29T12:27:18;3.88;;;3.28;;
10811;SDS011;5458;51.496;7.334;2022-07-29T12:29:43;6.13;;;2.50;;
10811;SDS011;5458;51.496;7.334;2022-07-29T12:32:09;9.43;;;2.75;;
10811;SDS011;5458;51.496;7.334;2022-07-29T12:34:35;3.97;;;2.92;;
10811;SDS011;5458;51.496;7.334;2022-07-29T12:37:00;4.88;;;2.38;;
10811;SDS011;5458;51.496;7.334;2022-07-29T12:39:26;3.83;;;2.72;;
10811;SDS011;5458;51.496;7.334;2022-07-29T12:41:53;6.63;;;2.60;;
10811;SDS011;5458;51.496;7.334;2022-07-29T12:44:19;3.83;;;2.72;;
10811;SDS011;5458;51.496;7.334;2022-07-29T12:46:45;4.60;;;2.92;;
10811;SDS011;5458;51.496;7.334;2022-07-29T12:49:25;3.95;;;2.45;;
10811;SDS011;5458;51.496;7.334;2022-07-29T12:51:51;7.03;;;2.55;;
10811;SDS011;5458;51.496;7.334;2022-07-29T12:54:16;6.18;;;3.05;;
10811;SDS011;5458;51.496;7.334;2022-07-29T12:56:43;4.55;;;3.10;;
10811;SDS011;5458;51.496;7.334;2022-07-29T12:59:13;4.43;;;2.45;;
10811;SDS011;5458;51.496;7.334;2022-07-29T13:01:40;6.97;;;3.20;;
10811;SDS011;5458;51.496;7.334;2022-07-29T13:04:06;3.25;;;2.65;;
10811;SDS011;5458;51.496;7.334;2022-07-29T13:11:41;4.38;;;2.30;;
10811;SDS011;5458;51.496;7.334;2022-07-29T13:14:09;3.85;;;3.00;;
10811;SDS011;5458;51.496;7.334;2022-07-29T13:16:37;6.07;;;2.55;;
10811;SDS011;5458;51.496;7.334;2022-07-29T13:19:33;4.80;;;2.67;;
10811;SDS011;5458;51.496;7.334;2022-07-29T13:22:07;6.07;;;2.47;;
10811;SDS011;5458;51.496;7.334;2022-07-29T13:24:55;2.85;;;2.13;;
10811;SDS011;5458;51.496;7.334;2022-07-29T13:27:23;5.43;;;2.88;;
10811;SDS011;5458;51.496;7.334;2022-07-29T13:29:54;6.22;;;2.95;;
10811;SDS011;5458;51.496;7.334;2022-07-29T13:32:23;5.15;;;2.55;;
10811;SDS011;5458;51.496;7.334;2022-07-29T13:34:50;5.28;;;2.97;;
10811;SDS011;5458;51.496;7.334;2022-07-29T13:37:17;5.22;;;2.70;;
10811;SDS011;5458;51.496;7.334;2022-07-29T13:39:43;5.45;;;2.60;;
10811;SDS011;5458;51.496;7.334;2022-07-29T13:42:09;7.15;;;2.47;;
10811;SDS011;5458;51.496;7.334;2022-07-29T13:44:35;2.33;;;2.05;;
10811;SDS011;5458;51.496;7.334;2022-07-29T13:47:00;6.45;;;2.95;;
10811;SDS011;5458;51.496;7.334;2022-07-29T13:49:26;2.42;;;2.15;;
10811;SDS011;5458;51.496;7.334;2022-07-29T13:51:53;5.53;;;2.53;;
10811;SDS011;5458;51.496;7.334;2022-07-29T13:54:19;5.07;;;3.00;;
10811;SDS011;5458;51.496;7.334;2022-07-29T13:56:45;4.78;;;2.58;;
10811;SDS011;5458;51.496;7.334;2022-07-29T13:59:11;3.97;;;2.20;;
10811;SDS011;5458;51.496;7.334;2022-07-29T14:01:37;5.20;;;2.78;;
10811;SDS011;5458;51.496;7.334;2022-07-29T14:04:03;3.90;;;2.92;;
10811;SDS011;5458;51.496;7.334;2022-07-29T14:06:29;4.53;;;2.55;;
10811;SDS011;5458;51.496;7.334;2022-07-29T14:08:55;4.15;;;2.42;;
10811;SDS011;5458;51.496;7.334;2022-07-29T14:11:20;4.65;;;2.45;;
10811;SDS011;5458;51.496;7.334;2022-07-29T14:13:46;5.18;;;2.70;;
10811;SDS011;5458;51.496;7.334;2022-07-29T14:16:12;4.50;;;2.50;;
10811;SDS011;5458;51.496;7.334;2022-07-29T14:18:37;4.53;;;2.40;;
10811;SDS011;5458;51.496;7.334;2022-07-29T14:21:03;2.63;;;2.10;;
10811;SDS011;5458;51.496;7.334;2022-07-29T14:23:29;9.55;;;2.15;;
10811;SDS011;5458;51.496;7.334;2022-07-29T14:25:54;3.70;;;2.15;;
10811;SDS011;5458;51.496;7.334;2022-07-29T14:28:20;3.53;;;1.95;;
10811;SDS011;5458;51.496;7.334;2022-07-29T14:30:46;3.78;;;2.10;;
10811;SDS011;5458;51.496;7.334;2022-07-29T14:33:11;4.97;;;2.47;;
10811;SDS011;5458;51.496;7.334;2022-07-29T14:35:37;5.28;;;2.58;;
10811;SDS011;5458;51.496;7.334;2022-07-29T14:38:03;4.57;;;1.80;;
10811;SDS011;5458;51.496;7.334;2022-07-29T14:40:29;3.15;;;1.98;;
10811;SDS011;5458;51.496;7.334;2022-07-29T14:42:54;4.97;;;2.47;;
10811;SDS011;5458;51.496;7.334;2022-07-29T14:45:20;4.60;;;2.35;;
10811;SDS011;5458;51.496;7.334;2022-07-29T14:47:45;4.10;;;1.92;;
10811;SDS011;5458;51.496;7.334;2022-07-29T14:50:11;5.88;;;2.00;;
10811;SDS011;5458;51.496;7.334;2022-07-29T14:52:38;4.80;;;2.10;;
10811;SDS011;5458;51.496;7.334;2022-07-29T14:55:04;2.80;;;2.10;;
10811;SDS011;5458;51.496;7.334;2022-07-29T14:57:30;3.90;;;2.17;;
10811;SDS011;5458;51.496;7.334;2022-07-29T14:59:55;5.88;;;2.45;;
10811;SDS011;5458;51.496;7.334;2022-07-29T15:02:21;6.75;;;2.20;;
10811;SDS011;5458;51.496;7.334;2022-07-29T15:04:47;4.70;;;2.10;;
10811;SDS011;5458;51.496;7.334;2022-07-29T15:07:13;5.63;;;2.38;;
10811;SDS011;5458;51.496;7.334;2022-07-29T15:09:39;4.22;;;2.22;;
10811;SDS011;5458;51.496;7.334;2022-07-29T15:12:05;3.00;;;1.75;;
10811;SDS011;5458;51.496;7.334;2022-07-29T15:14:31;2.33;;;1.73;;
10811;SDS011;5458;51.496;7.334;2022-07-29T15:16:57;4.15;;;1.95;;
10811;SDS011;5458;51.496;7.334;2022-07-29T15:19:22;3.88;;;1.88;;
10811;SDS011;5458;51.496;7.334;2022-07-29T15:21:48;4.20;;;2.53;;
10811;SDS011;5458;51.496;7.334;2022-07-29T15:24:15;2.72;;;2.08;;
10811;SDS011;5458;51.496;7.334;2022-07-29T15:26:41;4.70;;;2.45;;
10811;SDS011;5458;51.496;7.334;2022-07-29T15:29:07;3.45;;;1.90;;
10811;SDS011;5458;51.496;7.334;2022-07-29T15:31:33;3.20;;;1.55;;
10811;SDS011;5458;51.496;7.334;2022-07-29T15:33:59;6.25;;;2.03;;
10811;SDS011;5458;51.496;7.334;2022-07-29T15:36:24;3.13;;;1.80;;
10811;SDS011;5458;51.496;7.334;2022-07-29T15:38:51;5.85;;;2.28;;
10811;SDS011;5458;51.496;7.334;2022-07-29T15:41:18;4.43;;;2.65;;
10811;SDS011;5458;51.496;7.334;2022-07-29T15:43:44;3.63;;;1.90;;
10811;SDS011;5458;51.496;7.334;2022-07-29T15:46:12;2.85;;;2.08;;
10811;SDS011;5458;51.496;7.334;2022-07-29T15:48:58;3.55;;;2.13;;
10811;SDS011;5458;51.496;7.334;2022-07-29T15:51:23;2.90;;;1.90;;
10811;SDS011;5458;51.496;7.334;2022-07-29T15:53:49;3.45;;;2.17;;